createdAt,value
2022-11-17T00:01:27.894Z,97077.94
2022-11-17T00:03:54.533Z,97072.16
2022-11-17T00:06:21.054Z,97065.28
2022-11-17T00:08:49.038Z,97063.00
2022-11-17T00:11:15.934Z,97064.59
2022-11-17T00:14:00.910Z,97053.47
2022-11-17T00:16:27.450Z,97060.78
2022-11-17T00:19:12.658Z,97049.63
2022-11-17T00:21:39.247Z,97052.34
2022-11-17T00:24:06.538Z,97034.28
2022-11-17T00:26:35.624Z,97043.16
2022-11-17T00:29:04.676Z,97030.09
2022-11-17T00:31:51.150Z,97017.81
2022-11-17T00:34:22.834Z,97020.94
2022-11-17T00:36:51.931Z,97024.84
2022-11-17T00:39:20.961Z,97009.41
2022-11-17T00:41:47.830Z,97019.09
2022-11-17T00:44:14.695Z,97006.38
2022-11-17T00:46:42.013Z,97007.13
2022-11-17T00:49:09.825Z,96996.34
2022-11-17T00:51:36.840Z,96997.13
2022-11-17T00:54:04.990Z,96985.63
2022-11-17T00:56:31.555Z,96987.97
2022-11-17T00:58:58.273Z,96977.94
2022-11-17T01:01:25.401Z,96991.97
2022-11-17T01:04:02.831Z,96992.72
2022-11-17T01:06:31.480Z,96995.09
2022-11-17T01:09:06.174Z,96999.84
2022-11-17T01:11:33.170Z,96999.22
2022-11-17T01:14:00.924Z,96990.13
2022-11-17T01:16:29.437Z,96986.34
2022-11-17T01:18:58.243Z,96985.97
2022-11-17T01:21:26.973Z,96983.28
2022-11-17T01:23:55.542Z,96983.28
2022-11-17T01:26:25.600Z,96964.72
2022-11-17T01:28:52.856Z,96958.91
2022-11-17T01:31:28.188Z,96966.13
2022-11-17T01:33:55.385Z,96963.81
2022-11-17T01:36:28.673Z,96956.41
2022-11-17T01:38:55.396Z,96959.09
2022-11-17T01:41:27.181Z,96948.22
2022-11-17T01:44:38.180Z,96941.47
2022-11-17T01:47:13.443Z,96925.25
2022-11-17T01:49:40.085Z,96931.81
2022-11-17T01:52:10.800Z,96916.72
2022-11-17T01:54:41.904Z,96905.56
2022-11-17T01:57:14.857Z,96915.25
2022-11-17T01:59:58.966Z,96900.50
2022-11-17T02:02:25.996Z,96903.94
2022-11-17T02:05:21.786Z,96897.25
2022-11-17T02:07:52.382Z,96911.91
2022-11-17T02:10:18.943Z,96918.00
2022-11-17T02:12:45.807Z,96916.84
2022-11-17T02:15:12.356Z,96904.50
2022-11-17T02:17:41.786Z,96898.66
2022-11-17T02:20:19.766Z,96893.25
2022-11-17T02:23:10.424Z,96897.53
2022-11-17T02:26:09.309Z,96913.91
2022-11-17T02:28:48.777Z,96904.78
2022-11-17T02:31:15.377Z,96914.16
2022-11-17T02:34:00.811Z,96906.19
2022-11-17T02:36:55.641Z,96910.59
2022-11-17T02:40:13.929Z,96906.03
2022-11-17T02:43:02.558Z,96901.88
2022-11-17T02:45:50.616Z,96905.09
2022-11-17T02:48:32.786Z,96910.25
2022-11-17T02:51:00.013Z,96901.00
2022-11-17T02:53:28.397Z,96908.09
2022-11-17T02:55:54.950Z,96928.31
2022-11-17T02:58:21.854Z,96914.47
2022-11-17T03:01:00.692Z,96900.88
2022-11-17T03:03:33.415Z,96898.19
2022-11-17T03:06:15.581Z,96889.66
2022-11-17T03:09:08.834Z,96886.91
2022-11-17T03:11:48.456Z,96876.09
2022-11-17T03:14:26.891Z,96876.50
2022-11-17T03:17:03.139Z,96878.47
2022-11-17T03:19:37.840Z,96874.66
2022-11-17T03:22:07.909Z,96864.72
2022-11-17T03:24:44.182Z,96885.25
2022-11-17T03:27:35.450Z,96898.78
2022-11-17T03:30:06.930Z,96895.00
2022-11-17T03:32:39.483Z,96894.25
2022-11-17T03:35:17.556Z,96900.81
2022-11-17T03:37:49.738Z,96901.63
2022-11-17T03:40:20.888Z,96904.66
2022-11-17T03:42:53.990Z,96906.97
2022-11-17T03:45:27.841Z,96900.41
2022-11-17T03:48:12.881Z,96891.53
2022-11-17T03:50:59.503Z,96901.47
2022-11-17T03:53:26.084Z,96891.53
2022-11-17T03:56:07.406Z,96879.13
2022-11-17T03:58:43.858Z,96868.34
2022-11-17T04:01:11.327Z,96873.09
2022-11-17T04:03:38.236Z,96879.34
2022-11-17T04:06:05.146Z,96866.19
2022-11-17T04:08:31.860Z,96870.81
2022-11-17T04:11:17.373Z,96876.22
2022-11-17T04:14:02.494Z,96867.69
2022-11-17T04:16:29.051Z,96871.16
2022-11-17T04:18:58.990Z,96874.66
2022-11-17T04:21:25.976Z,96883.19
2022-11-17T04:23:52.703Z,96876.31
2022-11-17T04:26:38.026Z,96880.19
2022-11-17T04:29:04.565Z,96879.03
2022-11-17T04:31:31.929Z,96879.44
2022-11-17T04:34:06.208Z,96877.19
2022-11-17T04:36:37.031Z,96865.22
2022-11-17T04:39:03.786Z,96877.94
2022-11-17T04:41:49.508Z,96864.06
2022-11-17T04:44:18.107Z,96867.97
2022-11-17T04:46:46.049Z,96851.81
2022-11-17T04:49:14.530Z,96873.88
2022-11-17T04:51:41.936Z,96874.28
2022-11-17T04:54:10.421Z,96871.56
2022-11-17T04:56:37.758Z,96875.00
2022-11-17T04:59:05.306Z,96866.09
2022-11-17T05:01:32.654Z,96868.03
2022-11-17T05:04:01.187Z,96888.19
2022-11-17T05:06:39.024Z,96882.00
2022-11-17T05:09:16.377Z,96885.44
2022-11-17T05:12:02.556Z,96905.56
2022-11-17T05:14:29.555Z,96900.53
2022-11-17T05:17:09.535Z,96895.88
2022-11-17T05:19:44.188Z,96903.66
2022-11-17T05:22:31.655Z,96898.22
2022-11-17T05:24:58.839Z,96915.56
2022-11-17T05:27:25.979Z,96916.69
2022-11-17T05:29:52.820Z,96912.06
2022-11-17T05:32:20.189Z,96919.47
2022-11-17T05:34:46.752Z,96919.81
2022-11-17T05:37:13.250Z,96911.34
2022-11-17T05:39:39.863Z,96916.75
2022-11-17T05:42:06.434Z,96909.41
2022-11-17T05:44:33.029Z,96926.09
2022-11-17T05:46:59.911Z,96925.28
2022-11-17T05:49:26.425Z,96923.81
2022-11-17T05:51:53.352Z,96930.78
2022-11-17T05:54:20.401Z,96926.09
2022-11-17T05:56:49.300Z,96936.44
2022-11-17T05:59:32.338Z,96933.00
2022-11-17T06:02:20.772Z,96922.19
2022-11-17T06:04:49.388Z,96923.66
2022-11-17T06:07:17.841Z,96930.16
2022-11-17T06:09:45.867Z,96932.50
2022-11-17T06:12:12.508Z,96934.97
2022-11-17T06:14:39.852Z,96934.22
2022-11-17T06:17:16.285Z,96934.09
2022-11-17T06:19:48.893Z,96940.31
2022-11-17T06:22:15.645Z,96956.66
2022-11-17T06:24:44.700Z,96945.09
2022-11-17T06:27:13.586Z,96943.31
2022-11-17T06:29:44.264Z,96948.63
2022-11-17T06:32:13.936Z,96948.50
2022-11-17T06:34:41.646Z,96950.25
2022-11-17T06:37:08.221Z,96953.53
2022-11-17T06:39:34.724Z,96962.69
2022-11-17T06:42:01.205Z,96973.44
2022-11-17T06:44:27.781Z,96978.38
2022-11-17T06:46:54.296Z,96995.38
2022-11-17T06:49:20.847Z,96985.75
2022-11-17T06:51:47.384Z,96993.19
2022-11-17T06:54:15.160Z,96992.03
2022-11-17T06:56:42.441Z,96996.56
2022-11-17T06:59:09.029Z,97015.88
2022-11-17T07:01:37.338Z,97011.69
2022-11-17T07:04:04.050Z,97020.59
2022-11-17T07:06:30.781Z,97008.13
2022-11-17T07:09:04.138Z,97018.53
2022-11-17T07:11:30.802Z,97016.19
2022-11-17T07:13:57.971Z,97042.03
2022-11-17T07:16:24.531Z,97032.03
2022-11-17T07:18:53.009Z,97020.47
2022-11-17T07:21:19.857Z,97029.75
2022-11-17T07:23:46.385Z,97041.00
2022-11-17T07:26:14.263Z,97044.16
2022-11-17T07:28:40.817Z,97044.59
2022-11-17T07:31:09.188Z,97045.00
2022-11-17T07:33:36.626Z,97044.28
2022-11-17T07:36:11.392Z,97046.25
2022-11-17T07:38:39.833Z,97040.94
2022-11-17T07:41:08.808Z,97049.81
2022-11-17T07:43:36.284Z,97047.91
2022-11-17T07:46:07.559Z,97066.84
2022-11-17T07:48:34.369Z,97061.06
2022-11-17T07:51:03.239Z,97069.59
2022-11-17T07:53:31.607Z,97058.78
2022-11-17T07:56:06.610Z,97075.00
2022-11-17T07:58:33.571Z,97085.84
2022-11-17T08:01:07.941Z,97078.84
2022-11-17T08:03:34.628Z,97088.91
2022-11-17T08:06:03.032Z,97084.28
2022-11-17T08:08:29.589Z,97088.97
2022-11-17T08:10:56.096Z,97096.38
2022-11-17T08:13:24.258Z,97089.16
2022-11-17T08:15:56.496Z,97090.00
2022-11-17T08:18:23.343Z,97100.81
2022-11-17T08:20:49.827Z,97098.09
2022-11-17T08:23:16.506Z,97107.78
2022-11-17T08:25:43.108Z,97100.81
2022-11-17T08:28:09.929Z,97112.47
2022-11-17T08:30:36.538Z,97113.28
2022-11-17T08:33:03.121Z,97114.84
2022-11-17T08:35:33.038Z,97110.16
2022-11-17T08:38:03.716Z,97138.72
2022-11-17T08:40:30.268Z,97123.59
2022-11-17T08:43:00.908Z,97125.91
2022-11-17T08:45:28.206Z,97123.88
2022-11-17T08:47:56.502Z,97143.88
2022-11-17T08:50:23.400Z,97142.25
2022-11-17T08:52:49.988Z,97150.53
2022-11-17T08:55:16.682Z,97154.06
2022-11-17T08:57:43.846Z,97163.19
2022-11-17T09:00:11.291Z,97152.28
2022-11-17T09:02:38.537Z,97153.84
2022-11-17T09:05:05.557Z,97157.78
2022-11-17T09:07:35.786Z,97157.78
2022-11-17T09:10:04.670Z,97159.47
2022-11-17T09:12:31.231Z,97159.56
2022-11-17T09:14:57.771Z,97159.63
2022-11-17T09:17:24.282Z,97168.09
2022-11-17T09:19:50.876Z,97168.88
2022-11-17T09:22:17.415Z,97172.72
2022-11-17T09:24:43.931Z,97168.59
2022-11-17T09:27:10.540Z,97160.69
2022-11-17T09:29:37.025Z,97161.59
2022-11-17T09:32:03.582Z,97160.28
2022-11-17T09:34:30.197Z,97157.28
2022-11-17T09:36:56.744Z,97160.19
2022-11-17T09:39:23.229Z,97163.78
2022-11-17T09:41:53.173Z,97191.69
2022-11-17T09:44:27.201Z,97182.94
2022-11-17T09:47:02.595Z,97174.00
2022-11-17T09:50:03.076Z,97188.59
2022-11-17T09:53:04.693Z,97188.19
2022-11-17T09:55:38.877Z,97192.41
2022-11-17T09:58:38.901Z,97207.09
2022-11-17T10:01:06.469Z,97212.50
2022-11-17T10:03:40.389Z,97217.03
2022-11-17T10:06:25.326Z,97227.09
2022-11-17T10:08:58.217Z,97217.03
2022-11-17T10:11:32.597Z,97214.06
2022-11-17T10:14:12.221Z,97212.56
2022-11-17T10:16:42.002Z,97201.09
2022-11-17T10:19:16.671Z,97209.63
2022-11-17T10:21:43.219Z,97215.88
2022-11-17T10:24:09.898Z,97209.06
2022-11-17T10:26:54.525Z,97216.81
2022-11-17T10:29:23.274Z,97202.97
2022-11-17T10:31:50.007Z,97220.38
2022-11-17T10:34:40.608Z,97209.81
2022-11-17T10:37:14.097Z,97211.78
2022-11-17T10:39:42.812Z,97211.41
2022-11-17T10:42:27.726Z,97215.16
2022-11-17T10:44:57.767Z,97198.91
2022-11-17T10:47:40.084Z,97213.59
2022-11-17T10:50:12.657Z,97205.78
2022-11-17T10:52:39.303Z,97212.75
2022-11-17T10:55:26.507Z,97205.72
2022-11-17T10:58:01.149Z,97207.75
2022-11-17T11:00:27.665Z,97212.97
2022-11-17T11:03:25.117Z,97210.56
2022-11-17T11:05:57.412Z,97211.47
2022-11-17T11:08:31.213Z,97211.97
2022-11-17T11:11:00.046Z,97207.44
2022-11-17T11:13:37.056Z,97191.66
2022-11-17T11:16:03.657Z,97201.03
2022-11-17T11:18:31.937Z,97197.47
2022-11-17T11:21:02.676Z,97187.41
2022-11-17T11:24:14.437Z,97199.31
2022-11-17T11:26:56.748Z,97191.56
2022-11-17T11:29:34.283Z,97184.56
2022-11-17T11:32:22.596Z,97176.88
2022-11-17T11:34:49.072Z,97187.78
2022-11-17T11:37:17.459Z,97187.47
2022-11-17T11:39:59.015Z,97202.59
2022-11-17T11:42:40.530Z,97187.97
2022-11-17T11:45:24.310Z,97172.56
2022-11-17T11:48:25.033Z,97168.78
2022-11-17T11:51:05.225Z,97185.06
2022-11-17T11:54:00.149Z,97183.84
2022-11-17T11:56:39.245Z,97187.22
2022-11-17T11:59:12.677Z,97188.72
2022-11-17T12:02:00.465Z,97191.66
2022-11-17T12:04:42.038Z,97188.91
2022-11-17T12:07:27.599Z,97185.56
2022-11-17T12:10:12.950Z,97197.44
2022-11-17T12:12:40.920Z,97181.78
2022-11-17T12:15:13.662Z,97197.09
2022-11-17T12:17:52.073Z,97180.28
2022-11-17T12:20:30.726Z,97177.88
2022-11-17T12:23:43.748Z,97170.47
2022-11-17T12:26:25.650Z,97162.66
2022-11-17T12:29:21.438Z,97175.66
2022-11-17T12:31:49.937Z,97223.59
2022-11-17T12:34:28.956Z,97272.13
2022-11-17T12:37:07.444Z,97290.78
2022-11-17T12:39:59.172Z,97268.91
2022-11-17T12:42:27.769Z,97259.50
2022-11-17T12:45:10.702Z,97231.47
2022-11-17T12:47:40.548Z,97241.53
2022-11-17T12:50:07.203Z,97266.44
2022-11-17T12:52:39.673Z,97256.31
2022-11-17T12:55:41.377Z,97244.00
2022-11-17T12:58:35.551Z,97240.47
2022-11-17T13:01:12.644Z,97247.94
2022-11-17T13:03:52.598Z,97211.25
2022-11-17T13:06:34.821Z,97211.16
2022-11-17T13:09:07.395Z,97286.66
2022-11-17T13:11:35.230Z,97281.84
2022-11-17T13:14:13.400Z,97267.19
2022-11-17T13:16:49.738Z,97247.38
2022-11-17T13:19:40.390Z,97233.16
2022-11-17T13:22:13.759Z,97229.84
2022-11-17T13:24:43.140Z,97235.69
2022-11-17T13:27:22.142Z,97244.56
2022-11-17T13:29:49.451Z,97234.13
2022-11-17T13:32:23.860Z,97238.44
2022-11-17T13:35:00.001Z,97233.59
2022-11-17T13:37:29.213Z,97228.53
2022-11-17T13:40:01.464Z,97219.50
2022-11-17T13:42:31.193Z,97227.53
2022-11-17T13:45:00.945Z,97212.91
2022-11-17T13:47:36.534Z,97214.16
2022-11-17T13:50:27.802Z,97195.81
2022-11-17T13:52:56.662Z,97181.75
2022-11-17T13:55:24.521Z,97177.53
2022-11-17T13:58:53.015Z,97176.66
2022-11-17T14:01:25.416Z,97177.53
2022-11-17T14:03:52.663Z,97175.69
2022-11-17T14:06:19.339Z,97177.25
2022-11-17T14:09:04.163Z,97171.03
2022-11-17T14:11:30.971Z,97175.06
2022-11-17T14:13:59.045Z,97209.94
2022-11-17T14:16:37.626Z,97235.38
2022-11-17T14:19:26.216Z,97218.66
2022-11-17T14:22:24.936Z,97220.81
2022-11-17T14:24:57.368Z,97206.72
2022-11-17T14:27:27.121Z,97204.72
2022-11-17T14:29:53.742Z,97200.19
2022-11-17T14:32:20.296Z,97205.22
2022-11-17T14:34:46.856Z,97201.38
2022-11-17T14:37:13.449Z,97206.88
2022-11-17T14:39:39.970Z,97215.16
2022-11-17T14:42:06.503Z,97201.84
2022-11-17T14:44:33.229Z,97213.25
2022-11-17T14:46:59.867Z,97224.56
2022-11-17T14:49:26.429Z,97233.72
2022-11-17T14:51:55.344Z,97228.16
2022-11-17T14:54:21.950Z,97227.28
2022-11-17T14:56:48.464Z,97221.00
2022-11-17T14:59:16.548Z,97217.84
2022-11-17T15:01:43.668Z,97224.50
2022-11-17T15:04:42.849Z,97214.91
2022-11-17T15:07:01.423Z,97212.81
2022-11-17T15:09:28.082Z,97213.16
2022-11-17T15:11:54.570Z,97207.22
2022-11-17T15:14:21.175Z,97213.56
2022-11-17T15:16:47.748Z,97213.72
2022-11-17T15:19:14.437Z,97216.94
2022-11-17T15:21:41.184Z,97213.97
2022-11-17T15:24:09.214Z,97214.91
2022-11-17T15:26:36.085Z,97215.84
2022-11-17T15:29:02.828Z,97222.19
2022-11-17T15:31:29.343Z,97210.28
2022-11-17T15:33:55.995Z,97220.44
2022-11-17T15:36:23.397Z,97215.44
2022-11-17T15:38:50.348Z,97211.94
2022-11-17T15:41:16.993Z,97208.47
2022-11-17T15:43:44.728Z,97213.81
2022-11-17T15:46:13.534Z,97217.56
2022-11-17T15:48:44.953Z,97209.44
2022-11-17T15:51:13.753Z,97205.16
2022-11-17T15:53:41.464Z,97207.03
2022-11-17T15:56:13.254Z,97213.50
2022-11-17T15:58:41.437Z,97216.38
2022-11-17T16:01:12.325Z,97214.03
2022-11-17T16:03:40.793Z,97224.78
2022-11-17T16:06:08.329Z,97216.59
2022-11-17T16:08:35.569Z,97216.50
2022-11-17T16:11:02.544Z,97215.22
2022-11-17T16:13:29.163Z,97216.19
2022-11-17T16:15:55.843Z,97213.75
2022-11-17T16:18:22.741Z,97211.41
2022-11-17T16:20:49.624Z,97212.44
2022-11-17T16:23:16.239Z,97217.00
2022-11-17T16:25:44.326Z,97217.59
2022-11-17T16:28:11.721Z,97210.63
2022-11-17T16:30:38.566Z,97209.41
2022-11-17T16:33:13.370Z,97208.28
2022-11-17T16:35:41.521Z,97210.19
2022-11-17T16:38:13.846Z,97213.59
2022-11-17T16:40:41.254Z,97207.41
2022-11-17T16:43:10.840Z,97204.38
2022-11-17T16:45:45.120Z,97212.09
2022-11-17T16:48:12.898Z,97208.28
2022-11-17T16:50:41.250Z,97218.22
2022-11-17T16:53:07.877Z,97218.13
2022-11-17T16:55:37.794Z,97221.72
2022-11-17T16:58:05.966Z,97227.63
2022-11-17T17:00:34.806Z,97236.94
2022-11-17T17:03:01.969Z,97232.31
2022-11-17T17:05:29.496Z,97232.41
2022-11-17T17:07:57.059Z,97237.22
2022-11-17T17:10:24.707Z,97244.28
2022-11-17T17:12:51.340Z,97237.81
2022-11-17T17:15:18.177Z,97250.97
2022-11-17T17:17:44.685Z,97243.63
2022-11-17T17:20:11.590Z,97242.88
2022-11-17T17:22:38.248Z,97250.63
2022-11-17T17:25:05.257Z,97254.63
2022-11-17T17:27:31.864Z,97261.63
2022-11-17T17:29:58.479Z,97264.75
2022-11-17T17:32:25.065Z,97269.03
2022-11-17T17:34:51.638Z,97267.47
2022-11-17T17:37:18.268Z,97270.94
2022-11-17T17:39:44.801Z,97266.66
2022-11-17T17:42:12.901Z,97272.88
2022-11-17T17:44:39.432Z,97271.72
2022-11-17T17:47:06.605Z,97274.00
2022-11-17T17:49:33.100Z,97276.28
2022-11-17T17:51:59.622Z,97274.72
2022-11-17T17:54:26.200Z,97272.00
2022-11-17T17:56:52.919Z,97278.28
2022-11-17T17:59:19.826Z,97287.94
2022-11-17T18:01:47.807Z,97296.41
2022-11-17T18:04:16.432Z,97292.06
2022-11-17T18:06:47.054Z,97290.31
2022-11-17T18:09:15.567Z,97289.00
2022-11-17T18:11:46.029Z,97295.81
2022-11-17T18:14:13.489Z,97300.34
2022-11-17T18:16:40.613Z,97299.00
2022-11-17T18:19:08.718Z,97303.22
2022-11-17T18:21:36.263Z,97290.41
2022-11-17T18:24:03.344Z,97292.31
2022-11-17T18:26:32.869Z,97293.44
2022-11-17T18:29:05.710Z,97294.47
2022-11-17T18:31:34.756Z,97302.13
2022-11-17T18:34:04.667Z,97311.38
2022-11-17T18:36:31.480Z,97314.44
2022-11-17T18:38:58.738Z,97322.09
2022-11-17T18:41:27.004Z,97318.59
2022-11-17T18:43:55.020Z,97325.16
2022-11-17T18:46:23.460Z,97316.69
2022-11-17T18:48:51.969Z,97319.84
2022-11-17T18:51:24.482Z,97319.84
2022-11-17T18:53:53.022Z,97317.59
2022-11-17T18:56:22.604Z,97312.19
2022-11-17T18:58:49.443Z,97322.97
2022-11-17T19:01:18.762Z,97315.56
2022-11-17T19:03:46.845Z,97326.72
2022-11-17T19:06:14.895Z,97325.25
2022-11-17T19:08:41.601Z,97330.66
2022-11-17T19:11:09.639Z,97319.84
2022-11-17T19:13:39.136Z,97329.09
2022-11-17T19:16:10.623Z,97325.91
2022-11-17T19:18:37.397Z,97328.97
2022-11-17T19:21:26.857Z,97320.50
2022-11-17T19:23:55.394Z,97326.03
2022-11-17T19:26:27.617Z,97330.19
2022-11-17T19:29:02.276Z,97341.09
2022-11-17T19:31:29.101Z,97329.16
2022-11-17T19:33:56.767Z,97346.88
2022-11-17T19:36:26.592Z,97351.38
2022-11-17T19:38:54.933Z,97356.31
2022-11-17T19:41:36.341Z,97363.13
2022-11-17T19:44:05.300Z,97364.94
2022-11-17T19:46:33.217Z,97369.47
2022-11-17T19:48:59.917Z,97371.72
2022-11-17T19:51:31.835Z,97376.53
2022-11-17T19:54:01.708Z,97376.78
2022-11-17T19:56:28.622Z,97382.84
2022-11-17T19:58:55.614Z,97388.06
2022-11-17T20:01:27.036Z,97387.50
2022-11-17T20:03:54.235Z,97394.28
2022-11-17T20:06:24.027Z,97390.69
2022-11-17T20:08:50.636Z,97398.34
2022-11-17T20:11:22.448Z,97390.56
2022-11-17T20:13:49.611Z,97400.91
2022-11-17T20:16:22.023Z,97397.44
2022-11-17T20:18:50.851Z,97397.44
2022-11-17T20:21:17.509Z,97399.78
2022-11-17T20:23:45.325Z,97411.16
2022-11-17T20:26:20.313Z,97406.19
2022-11-17T20:28:47.962Z,97414.84
2022-11-17T20:31:17.573Z,97411.91
2022-11-17T20:33:44.060Z,97412.03
2022-11-17T20:36:21.461Z,97414.47
2022-11-17T20:38:52.808Z,97409.63
2022-11-17T20:41:21.080Z,97424.34
2022-11-17T20:43:49.258Z,97414.44
2022-11-17T20:46:16.021Z,97411.09
2022-11-17T20:48:42.722Z,97415.72
2022-11-17T20:51:14.748Z,97422.53
2022-11-17T20:53:41.177Z,97418.94
2022-11-17T20:56:09.606Z,97422.53
2022-11-17T20:58:36.897Z,97413.53
2022-11-17T21:01:11.917Z,97410.31
2022-11-17T21:03:38.664Z,97404.44
2022-11-17T21:06:05.695Z,97407.84
2022-11-17T21:08:35.189Z,97404.59
2022-11-17T21:11:04.403Z,97411.78
2022-11-17T21:13:33.125Z,97417.44
2022-11-17T21:16:13.140Z,97423.75
2022-11-17T21:18:45.825Z,97425.91
2022-11-17T21:21:12.650Z,97430.03
2022-11-17T21:23:40.311Z,97427.34
2022-11-17T21:26:12.627Z,97419.50
2022-11-17T21:28:39.700Z,97424.88
2022-11-17T21:31:08.593Z,97417.22
2022-11-17T21:33:36.027Z,97425.56
2022-11-17T21:36:11.333Z,97426.03
2022-11-17T21:38:38.417Z,97423.53
2022-11-17T21:41:07.575Z,97427.28
2022-11-17T21:43:36.664Z,97441.88
2022-11-17T21:46:05.231Z,97444.91
2022-11-17T21:48:31.800Z,97451.44
2022-11-17T21:50:58.668Z,97451.88
2022-11-17T21:53:25.553Z,97448.06
2022-11-17T21:55:52.119Z,97451.19
2022-11-17T21:58:19.118Z,97459.66
2022-11-17T22:00:45.739Z,97464.25
2022-11-17T22:03:12.307Z,97465.03
2022-11-17T22:05:38.830Z,97470.44
2022-11-17T22:08:05.555Z,97472.00
2022-11-17T22:10:32.045Z,97478.19
2022-11-17T22:12:58.577Z,97475.94
2022-11-17T22:15:25.086Z,97483.69
2022-11-17T22:17:51.632Z,97482.88
2022-11-17T22:20:19.099Z,97485.28
2022-11-17T22:22:47.682Z,97482.25
2022-11-17T22:25:38.023Z,97485.41
2022-11-17T22:28:00.731Z,97480.09
2022-11-17T22:30:27.277Z,97473.25
2022-11-17T22:32:53.794Z,97481.34
2022-11-17T22:35:20.476Z,97471.00
2022-11-17T22:37:47.043Z,97467.97
2022-11-17T22:40:13.597Z,97470.31
2022-11-17T22:42:40.139Z,97470.31
2022-11-17T22:45:07.082Z,97464.03
2022-11-17T22:47:33.571Z,97477.84
2022-11-17T22:50:00.082Z,97476.19
2022-11-17T22:52:26.727Z,97488.41
2022-11-17T22:54:53.261Z,97480.19
2022-11-17T22:57:19.787Z,97477.50
2022-11-17T22:59:46.421Z,97489.88
2022-11-17T23:02:12.952Z,97488.28
2022-11-17T23:04:39.529Z,97490.66
2022-11-17T23:07:06.125Z,97492.09
2022-11-17T23:09:32.731Z,97490.97
2022-11-17T23:11:59.365Z,97493.69
2022-11-17T23:14:26.278Z,97491.91
2022-11-17T23:16:52.780Z,97500.78
2022-11-17T23:19:19.698Z,97506.19
2022-11-17T23:21:46.467Z,97504.59
2022-11-17T23:24:14.663Z,97500.00
2022-11-17T23:26:42.072Z,97507.31
2022-11-17T23:29:09.397Z,97509.22
2022-11-17T23:31:35.934Z,97500.00
2022-11-17T23:34:02.614Z,97503.84
2022-11-17T23:36:29.195Z,97513.81
2022-11-17T23:38:57.580Z,97506.97
2022-11-17T23:41:24.134Z,97513.16
2022-11-17T23:43:53.012Z,97510.81
2022-11-17T23:46:22.102Z,97510.81
2022-11-17T23:48:48.748Z,97510.81
2022-11-17T23:51:18.654Z,97516.19
2022-11-17T23:53:46.262Z,97508.56
2022-11-17T23:56:13.683Z,97507.06
2022-11-17T23:58:40.244Z,97507.88
